Pineville, MO (64856)

5:09 PM CDT on September 02, 2015 (GMT -0500)
Wentworth Division | | Change Station
CLOSE
Current Station
Personal Weather Station
Location: Bella Vista, AR
Elevation: 1247 ft
Nearby Weather Stations

Elev 1247 ft 36.45 °N, 94.25 °W | Updated 6 seconds ago

Clear
Clear
87.6 °F
Feels Like 93 °F
N
0.0
Wind Variable Wind from WSW
Gusts 0.0 mph

Today
High -- | Low -- °F
--% Chance of Precip.
Yesterday
High -- | Low -- °F
Precip. -- in
6:49 AM 7:44 PM
Waning Gibbous, 77% visible
Pressure 30.03 in
Visibility 10.0 miles
Clouds Few 4700 ft
Scattered Clouds 6000 ft
Heat Index 93 °F
Dew Point 70 °F
Humidity 56%
Rainfall 0.00 in
Snow Depth Not available.
UV 1.0 out of 12
Pollen 10.90 out of 12
Air Quality Not available.
Flu Activity Not available.
METAR KVBT 022155Z AUTO 22009KT 10SM FEW047 SCT060 31/18 A3003 RMK AO1
Pressure 30.03 in
Visibility 10.0 miles
Clouds Few 4700 ft
Scattered Clouds 6000 ft
Heat Index 93 °F
Dew Point 70 °F
Humidity 56%
Rainfall 0.00 in
Snow Depth Not available.
UV 1.0 out of 12
Pollen 10.90 out of 12
Air Quality Not available.
Flu Activity Not available.
METAR KVBT 022155Z AUTO 22009KT 10SM FEW047 SCT060 31/18 A3003 RMK AO1

10-Day Weather Forecast

×

Almanac

Astronomy

Sep. 02, 2015 Rise Set
Actual Time
Civil Twilight
Nautical Twilight
Astronomical Twilight
Moon
Length of Visible Light
Length of Day
Tomorrow will be .
, % of the Moon is Illuminated

Today's Extremes

State Highs State Lows

Community

WunderPhotos

Upload Photos

1,851,821 photos uploaded!

WunderBlogs® & News

Nearby

Air Quality

  Air Quality AQ Index Pollutant
Not available.

Snow Depth

Station Depth Elevation

Earthquake Activity

City Distance Mag. Time & Date
Minimum magnitude displayed is 2.5.

Coastal Water Temperatures

Place Temperature

Stations

Nearby Weather Stations

Station Location Temp. Windchill Dew Point Humidity Wind Precip. Elev Updated Type